Time;durP1;ratioP1;P1;durP2;ratioP2;P2;SDS_P1;SDS_P2;PMS_P1;PMS_P2;Temp;Humidity;BMP_temperature;BMP_pressure;BME280_temperature;BME280_humidity;BME280_pressure;Samples;Min_cycle;Max_cycle;Signal;HPM_P1;HPM_P2
2023/07/06 00:01:10;;;;;;;6.90;1.85;;;20.50;86.20;;;;;;5013711;28;20088;-74
2023/07/06 00:03:37;;;;;;;6.35;1.83;;;20.40;86.20;;;;;;5013713;28;20033;-74
2023/07/06 00:06:09;;;;;;;13.88;3.42;;;20.50;86.30;;;;;;5013834;28;20030;-74
2023/07/06 00:08:37;;;;;;;7.03;1.98;;;20.40;86.20;;;;;;5013840;28;20109;-74
2023/07/06 00:11:04;;;;;;;5.90;2.10;;;20.40;86.30;;;;;;5013869;28;20490;-74
2023/07/06 00:13:30;;;;;;;7.07;2.10;;;20.40;86.40;;;;;;5013675;28;20026;-74
2023/07/06 00:15:59;;;;;;;4.55;1.95;;;20.40;86.40;;;;;;5013687;28;20030;-75
2023/07/06 00:18:25;;;;;;;5.65;1.60;;;20.40;86.40;;;;;;5013385;28;20029;-74
2023/07/06 00:20:51;;;;;;;9.80;2.75;;;20.30;86.40;;;;;;5012134;28;20026;-74
2023/07/06 00:23:17;;;;;;;7.25;1.83;;;20.30;87.10;;;;;;5013529;28;20467;-74
2023/07/06 00:25:43;;;;;;;7.70;2.05;;;20.30;86.50;;;;;;5013638;28;20022;-74
2023/07/06 00:28:10;;;;;;;7.47;2.03;;;20.30;86.60;;;;;;5013434;28;20025;-74
2023/07/06 00:30:41;;;;;;;5.28;1.70;;;20.30;86.60;;;;;;5013656;28;20093;-74
2023/07/06 00:33:08;;;;;;;8.02;2.22;;;20.30;86.70;;;;;;5013096;28;20029;-74
2023/07/06 00:35:34;;;;;;;6.10;2.85;;;20.30;86.80;;;;;;5013711;28;20030;-74
2023/07/06 00:38:00;;;;;;;5.22;2.33;;;20.20;86.70;;;;;;5013414;28;20026;-75
2023/07/06 00:40:32;;;;;;;8.27;2.10;;;20.20;86.70;;;;;;5013280;28;20062;-74
2023/07/06 00:42:59;;;;;;;5.43;1.73;;;20.20;86.80;;;;;;5013346;28;20394;-74
2023/07/06 00:45:25;;;;;;;5.45;1.80;;;20.20;86.80;;;;;;5013311;28;20018;-74
2023/07/06 00:47:56;;;;;;;8.95;2.22;;;20.20;86.90;;;;;;5013001;28;20029;-74
2023/07/06 00:50:24;;;;;;;7.07;1.77;;;20.10;86.90;;;;;;5013404;28;20022;-74
2023/07/06 00:53:04;;;;;;;9.35;2.22;;;20.20;87.00;;;;;;5013078;28;20026;-74
2023/07/06 00:55:36;;;;;;;4.20;1.65;;;20.10;87.00;;;;;;5013360;28;20375;-74
2023/07/06 00:58:13;;;;;;;7.73;2.33;;;20.10;87.00;;;;;;5013126;28;20112;-74
2023/07/06 01:00:40;;;;;;;6.85;2.03;;;20.10;87.00;;;;;;5013090;28;20299;-74
2023/07/06 01:03:07;;;;;;;15.45;2.55;;;20.10;87.10;;;;;;5012892;28;20022;-74
2023/07/06 01:05:33;;;;;;;7.18;2.25;;;20.10;87.10;;;;;;5013427;28;20053;-74
2023/07/06 01:08:11;;;;;;;5.30;2.17;;;20.00;87.10;;;;;;5011787;28;20065;-75
2023/07/06 01:10:39;;;;;;;5.15;1.90;;;20.00;87.10;;;;;;5013324;28;20468;-74
2023/07/06 01:13:07;;;;;;;9.95;2.63;;;20.00;87.20;;;;;;5012853;28;20057;-74
2023/07/06 01:15:44;;;;;;;5.90;2.05;;;20.00;87.30;;;;;;5012948;28;20018;-74
2023/07/06 01:18:22;;;;;;;9.98;2.60;;;20.00;87.30;;;;;;5013031;28;20026;-74
2023/07/06 01:21:02;;;;;;;9.48;2.60;;;20.00;87.30;;;;;;5012849;28;20030;-74
2023/07/06 01:24:07;;;;;;;6.20;2.17;;;19.90;87.30;;;;;;5013159;28;20205;-74
2023/07/06 01:26:58;;;;;;;4.30;1.63;;;19.90;87.20;;;;;;5010539;28;20121;-74
2023/07/06 01:29:52;;;;;;;7.75;1.80;;;19.90;87.30;;;;;;5014738;28;20117;-74
2023/07/06 01:32:25;;;;;;;6.53;2.40;;;19.90;87.40;;;;;;5016621;28;20022;-74
2023/07/06 01:35:05;;;;;;;10.18;2.67;;;19.90;87.40;;;;;;5016616;28;20033;-74
2023/07/06 01:37:37;;;;;;;9.98;2.25;;;19.80;87.50;;;;;;5016615;28;20025;-74
2023/07/06 01:40:09;;;;;;;5.30;1.70;;;19.80;87.50;;;;;;5016247;28;20503;-74
2023/07/06 01:42:36;;;;;;;9.27;2.60;;;19.80;87.60;;;;;;5016518;28;20446;-74
2023/07/06 01:45:05;;;;;;;8.10;2.35;;;19.80;87.60;;;;;;5016080;28;20022;-74
2023/07/06 01:47:34;;;;;;;5.63;1.77;;;19.80;87.70;;;;;;5016342;28;20383;-74
2023/07/06 01:50:02;;;;;;;4.88;1.77;;;19.80;87.70;;;;;;5014921;28;20046;-74
2023/07/06 01:52:49;;;;;;;12.20;3.08;;;19.80;87.80;;;;;;5016363;28;20018;-74
2023/07/06 01:55:20;;;;;;;5.43;2.15;;;19.70;87.70;;;;;;5016254;28;20064;-74
2023/07/06 01:57:55;;;;;;;3.97;2.00;;;19.70;87.80;;;;;;5016207;28;20029;-74
2023/07/06 02:00:24;;;;;;;8.57;2.20;;;19.60;87.80;;;;;;5015736;28;20029;-74
2023/07/06 02:02:52;;;;;;;5.03;1.95;;;19.70;87.90;;;;;;5016293;28;20034;-74
2023/07/06 02:05:22;;;;;;;6.40;2.05;;;19.70;87.90;;;;;;5016093;28;20014;-74
2023/07/06 02:07:49;;;;;;;5.18;2.30;;;19.60;87.80;;;;;;5016154;28;20026;-74
2023/07/06 02:10:16;;;;;;;5.43;2.72;;;19.60;88.00;;;;;;5016028;28;20061;-74
2023/07/06 02:12:47;;;;;;;6.70;1.95;;;19.60;88.00;;;;;;5015971;28;20033;-74
2023/07/06 02:15:19;;;;;;;6.15;2.20;;;19.60;88.00;;;;;;5015444;28;20375;-74
2023/07/06 02:17:49;;;;;;;10.43;2.30;;;19.60;88.00;;;;;;5015968;28;20070;-74
2023/07/06 02:20:16;;;;;;;7.32;2.20;;;19.50;88.10;;;;;;5015689;28;20391;-74
2023/07/06 02:22:43;;;;;;;7.30;2.10;;;19.50;88.10;;;;;;5015769;28;20037;-74
2023/07/06 02:25:08;;;;;;;8.77;2.55;;;19.50;88.20;;;;;;5015584;28;20030;-74
2023/07/06 02:27:34;;;;;;;6.53;2.10;;;19.50;88.20;;;;;;5015459;28;20036;-74
2023/07/06 02:30:00;;;;;;;8.20;2.85;;;19.40;88.20;;;;;;5012015;28;20367;-74
2023/07/06 02:32:26;;;;;;;4.53;2.20;;;19.50;88.40;;;;;;5015403;28;20124;-74
2023/07/06 02:34:52;;;;;;;9.30;2.45;;;19.50;88.30;;;;;;5012346;28;20021;-74
2023/07/06 02:37:18;;;;;;;8.73;2.72;;;19.50;88.40;;;;;;5014020;28;20034;-74
2023/07/06 02:39:44;;;;;;;5.45;2.22;;;19.40;88.40;;;;;;5014237;28;20022;-74
2023/07/06 02:42:14;;;;;;;7.28;2.17;;;19.40;88.50;;;;;;5013932;28;20041;-74
2023/07/06 02:44:40;;;;;;;5.28;2.17;;;19.40;88.50;;;;;;5015330;28;20117;-74
2023/07/06 02:47:06;;;;;;;6.32;2.28;;;19.30;88.40;;;;;;5015322;28;20022;-74
2023/07/06 02:49:32;;;;;;;5.47;2.20;;;19.30;88.50;;;;;;5015262;28;20018;-74
2023/07/06 02:52:00;;;;;;;5.68;2.47;;;19.30;88.60;;;;;;5015114;28;20076;-74
2023/07/06 02:54:26;;;;;;;4.65;2.03;;;19.30;88.60;;;;;;5014040;28;20153;-74
2023/07/06 02:56:51;;;;;;;9.27;2.42;;;19.30;88.70;;;;;;5014713;28;20045;-74
2023/07/06 02:59:18;;;;;;;9.43;2.83;;;19.30;88.80;;;;;;5015224;28;20022;-74
2023/07/06 03:01:45;;;;;;;7.35;2.70;;;19.20;88.80;;;;;;5014788;28;20057;-74
2023/07/06 03:04:11;;;;;;;7.18;2.00;;;19.20;88.90;;;;;;5015100;28;20088;-75
2023/07/06 03:06:38;;;;;;;6.40;2.75;;;19.20;88.90;;;;;;5014932;28;20029;-74
2023/07/06 03:09:04;;;;;;;5.80;2.20;;;19.20;89.00;;;;;;5014709;28;20483;-74
2023/07/06 03:11:34;;;;;;;7.97;2.30;;;19.20;89.00;;;;;;5014404;28;20056;-74
2023/07/06 03:14:02;;;;;;;9.95;2.90;;;19.10;89.00;;;;;;5014914;28;20022;-74
2023/07/06 03:16:28;;;;;;;8.82;2.70;;;19.20;89.20;;;;;;5014676;28;20030;-74
2023/07/06 03:18:53;;;;;;;9.07;2.80;;;19.10;89.30;;;;;;5014824;28;20048;-74
2023/07/06 03:21:20;;;;;;;7.50;2.63;;;19.10;89.30;;;;;;5014214;28;20237;-74
2023/07/06 03:23:47;;;;;;;7.85;2.70;;;19.10;89.30;;;;;;5014658;28;20025;-74
2023/07/06 03:26:14;;;;;;;11.85;2.92;;;19.10;89.30;;;;;;5014140;28;20487;-73
2023/07/06 03:28:40;;;;;;;9.05;2.40;;;19.10;89.40;;;;;;5014463;28;20060;-74
2023/07/06 03:31:06;;;;;;;5.68;1.90;;;19.00;89.50;;;;;;5014384;28;20417;-74
2023/07/06 03:33:32;;;;;;;6.85;2.38;;;19.10;89.50;;;;;;5014531;28;20050;-74
2023/07/06 03:35:58;;;;;;;7.25;2.42;;;19.00;89.60;;;;;;5014390;28;20034;-74
2023/07/06 03:38:25;;;;;;;5.22;2.28;;;19.00;89.60;;;;;;5014419;28;20075;-74
2023/07/06 03:40:52;;;;;;;6.10;2.60;;;19.00;89.70;;;;;;5013772;28;20022;-73
2023/07/06 03:43:19;;;;;;;12.13;2.78;;;19.00;89.80;;;;;;5012902;28;20398;-73
2023/07/06 03:45:47;;;;;;;11.77;2.70;;;18.90;89.80;;;;;;5014235;28;20064;-74
2023/07/06 03:48:14;;;;;;;6.60;2.33;;;19.00;89.90;;;;;;5014139;28;20113;-74
2023/07/06 03:50:40;;;;;;;9.70;2.75;;;18.90;89.80;;;;;;5013741;28;20030;-74
2023/07/06 03:53:07;;;;;;;7.85;2.58;;;18.90;89.90;;;;;;5013912;28;20105;-73
2023/07/06 03:55:33;;;;;;;8.93;2.35;;;18.90;89.90;;;;;;5013933;28;20018;-74
2023/07/06 03:58:00;;;;;;;7.32;3.13;;;18.90;89.90;;;;;;5014065;28;20105;-74
2023/07/06 04:00:28;;;;;;;8.00;2.65;;;18.90;90.00;;;;;;5014018;28;20088;-74
2023/07/06 04:02:56;;;;;;;5.53;2.22;;;18.90;90.30;;;;;;5013816;28;20034;-74
2023/07/06 04:05:24;;;;;;;6.30;2.97;;;18.80;90.10;;;;;;5013886;28;20041;-74
2023/07/06 04:07:52;;;;;;;8.70;2.67;;;18.80;90.10;;;;;;5013937;28;20379;-74
2023/07/06 04:10:20;;;;;;;9.35;2.88;;;18.80;90.20;;;;;;5013499;28;20022;-74
2023/07/06 04:12:48;;;;;;;9.63;3.47;;;18.80;90.20;;;;;;5013662;28;20080;-74
2023/07/06 04:15:17;;;;;;;10.23;3.65;;;18.80;90.30;;;;;;5012580;28;20432;-74
2023/07/06 04:17:47;;;;;;;8.15;2.60;;;18.80;90.30;;;;;;5012404;28;20029;-74
2023/07/06 04:20:34;;;;;;;7.57;2.95;;;18.80;90.30;;;;;;5013563;28;20065;-74
2023/07/06 04:23:00;;;;;;;7.75;2.80;;;18.80;90.30;;;;;;5013462;28;20549;-74
2023/07/06 04:25:31;;;;;;;7.32;2.90;;;18.80;90.40;;;;;;5013403;28;20048;-74
2023/07/06 04:28:02;;;;;;;7.63;2.83;;;18.80;90.50;;;;;;5013538;28;20530;-74
2023/07/06 04:30:29;;;;;;;8.32;2.80;;;18.80;90.40;;;;;;5013634;28;20022;-74
2023/07/06 04:32:55;;;;;;;8.32;2.70;;;18.70;90.40;;;;;;5013447;28;20026;-74
2023/07/06 04:35:21;;;;;;;11.13;3.40;;;18.70;90.50;;;;;;5013444;28;20325;-74
2023/07/06 04:37:48;;;;;;;5.88;2.83;;;18.70;90.60;;;;;;5013481;28;20052;-74
2023/07/06 04:40:18;;;;;;;8.50;3.00;;;18.70;90.60;;;;;;5013213;28;20383;-74
2023/07/06 04:42:47;;;;;;;13.38;3.25;;;18.70;90.60;;;;;;5013243;28;20372;-74
2023/07/06 04:45:14;;;;;;;12.32;2.60;;;18.70;90.60;;;;;;5013342;28;20022;-74
2023/07/06 04:47:41;;;;;;;8.73;3.20;;;18.70;90.70;;;;;;5011969;28;20029;-74
2023/07/06 04:50:08;;;;;;;10.95;3.42;;;18.60;90.70;;;;;;5013397;28;20018;-74
2023/07/06 04:52:34;;;;;;;5.30;2.55;;;18.70;90.80;;;;;;5013075;28;20037;-73
2023/07/06 04:55:00;;;;;;;9.43;2.90;;;18.60;90.80;;;;;;5013113;28;20110;-74
2023/07/06 04:57:26;;;;;;;11.48;3.05;;;18.70;90.90;;;;;;5013024;28;20076;-74
2023/07/06 04:59:52;;;;;;;12.18;3.25;;;18.70;90.90;;;;;;5013343;28;20029;-74
2023/07/06 05:02:17;;;;;;;9.57;3.53;;;18.70;91.00;;;;;;5014916;28;20041;-74
2023/07/06 05:04:43;;;;;;;11.27;3.00;;;18.70;91.10;;;;;;5016935;28;20037;-74
2023/07/06 05:07:12;;;;;;;8.38;3.15;;;18.60;91.10;;;;;;5016339;28;20037;-74
2023/07/06 05:09:40;;;;;;;12.77;3.42;;;18.60;91.10;;;;;;5016381;28;20022;-74
2023/07/06 05:12:07;;;;;;;11.52;3.13;;;18.70;91.20;;;;;;5016995;28;20049;-74
2023/07/06 05:14:34;;;;;;;10.50;2.75;;;18.60;91.30;;;;;;5016864;28;20101;-73
2023/07/06 05:17:00;;;;;;;11.32;3.13;;;18.70;91.30;;;;;;5017074;28;20020;-74
2023/07/06 05:19:27;;;;;;;10.55;3.22;;;18.60;91.30;;;;;;5016903;28;20026;-74
2023/07/06 05:21:55;;;;;;;10.07;3.33;;;18.60;91.40;;;;;;5016428;28;20041;-73
2023/07/06 05:24:21;;;;;;;9.48;3.80;;;18.70;91.50;;;;;;5016826;28;20022;-74
2023/07/06 05:26:47;;;;;;;15.88;3.38;;;18.70;91.60;;;;;;5016819;28;20149;-73
2023/07/06 05:29:12;;;;;;;10.85;2.80;;;18.60;91.60;;;;;;5015464;28;20061;-74
2023/07/06 05:31:38;;;;;;;12.65;3.45;;;18.60;91.60;;;;;;5016707;28;20030;-74
2023/07/06 05:34:03;;;;;;;8.85;3.10;;;18.70;91.70;;;;;;5015258;28;20026;-74
2023/07/06 05:36:29;;;;;;;11.75;3.28;;;18.70;91.80;;;;;;5015115;28;20030;-74
2023/07/06 05:38:54;;;;;;;8.55;3.10;;;18.60;91.80;;;;;;5016567;28;20033;-74
2023/07/06 05:41:20;;;;;;;12.57;3.00;;;18.60;91.80;;;;;;5016217;28;20038;-74
2023/07/06 05:43:45;;;;;;;11.93;3.17;;;18.60;92.00;;;;;;5016428;28;20036;-73
2023/07/06 05:46:11;;;;;;;9.98;3.20;;;18.70;92.00;;;;;;5015313;28;20072;-73
2023/07/06 05:48:36;;;;;;;9.32;2.88;;;18.70;92.30;;;;;;5016225;28;20033;-73
2023/07/06 05:51:03;;;;;;;10.50;3.58;;;18.70;92.50;;;;;;5014778;28;20018;-74
2023/07/06 05:53:28;;;;;;;9.60;3.33;;;18.80;92.70;;;;;;5014920;28;20028;-74
2023/07/06 05:55:54;;;;;;;10.52;2.65;;;18.80;93.00;;;;;;5016253;28;20022;-74
2023/07/06 05:58:19;;;;;;;10.82;3.70;;;18.80;93.10;;;;;;5016261;28;20426;-73
2023/07/06 06:00:45;;;;;;;11.20;3.72;;;18.80;93.30;;;;;;5015905;28;20077;-73
2023/07/06 06:03:11;;;;;;;11.20;3.33;;;18.90;93.50;;;;;;5016282;28;20026;-74
2023/07/06 06:05:37;;;;;;;11.07;3.38;;;18.90;93.60;;;;;;5015848;28;20026;-73
2023/07/06 06:08:03;;;;;;;9.75;3.08;;;19.00;93.70;;;;;;5016098;28;20084;-74
2023/07/06 06:10:31;;;;;;;9.43;3.08;;;19.00;93.90;;;;;;5015955;28;20080;-74
2023/07/06 06:12:57;;;;;;;8.75;3.67;;;19.10;93.90;;;;;;5015808;28;20057;-74
2023/07/06 06:15:23;;;;;;;11.02;2.97;;;19.10;94.00;;;;;;5015803;28;20017;-73
2023/07/06 06:17:50;;;;;;;8.93;3.10;;;19.20;94.00;;;;;;5015807;28;20030;-73
2023/07/06 06:20:16;;;;;;;6.93;2.42;;;19.30;94.00;;;;;;5014127;28;20029;-73
2023/07/06 06:22:41;;;;;;;9.95;3.17;;;19.30;94.00;;;;;;5015594;28;20399;-74
2023/07/06 06:25:07;;;;;;;12.95;2.88;;;19.40;94.00;;;;;;5015533;28;20029;-74
2023/07/06 06:27:33;;;;;;;8.13;2.60;;;19.50;94.00;;;;;;5015683;28;20022;-74
2023/07/06 06:29:59;;;;;;;10.23;2.83;;;19.50;94.00;;;;;;5014326;28;20026;-74
2023/07/06 06:32:25;;;;;;;7.53;2.58;;;19.60;94.10;;;;;;5015426;28;20026;-73
2023/07/06 06:34:51;;;;;;;5.80;2.35;;;19.60;94.00;;;;;;5015150;28;20034;-73
2023/07/06 06:37:16;;;;;;;8.25;2.53;;;19.70;94.20;;;;;;5015453;28;20036;-73
2023/07/06 06:39:43;;;;;;;9.30;3.03;;;19.70;94.20;;;;;;5015121;28;20438;-73
2023/07/06 06:42:09;;;;;;;6.18;2.67;;;19.80;94.30;;;;;;5015214;28;20042;-73
2023/07/06 06:44:35;;;;;;;7.30;2.58;;;19.80;94.40;;;;;;5015041;28;20021;-73
2023/07/06 06:47:04;;;;;;;6.97;2.55;;;19.90;94.30;;;;;;5015426;28;20391;-73
2023/07/06 06:49:33;;;;;;;10.50;3.10;;;19.90;94.30;;;;;;5014933;28;20018;-73
2023/07/06 06:52:01;;;;;;;7.78;2.85;;;20.00;94.40;;;;;;5015076;28;20037;-74
2023/07/06 06:54:27;;;;;;;9.13;3.03;;;20.00;94.30;;;;;;5015049;28;20045;-74
2023/07/06 06:56:53;;;;;;;7.40;2.53;;;20.00;94.30;;;;;;5015222;28;20018;-73
2023/07/06 06:59:19;;;;;;;8.55;2.78;;;20.10;94.30;;;;;;5015228;28;20022;-74
2023/07/06 07:01:45;;;;;;;13.82;2.85;;;20.10;94.20;;;;;;5014783;28;20045;-74
2023/07/06 07:04:11;;;;;;;7.93;2.28;;;20.20;94.20;;;;;;5014844;28;20109;-74
2023/07/06 07:06:38;;;;;;;7.20;2.88;;;20.20;94.30;;;;;;5013325;28;20083;-73
2023/07/06 07:09:05;;;;;;;7.22;2.22;;;20.20;94.50;;;;;;5015007;28;20017;-74
2023/07/06 07:11:31;;;;;;;8.23;2.15;;;20.30;94.30;;;;;;5014737;28;20037;-74
2023/07/06 07:13:56;;;;;;;7.60;2.30;;;20.30;94.20;;;;;;5014835;28;20057;-73
2023/07/06 07:16:23;;;;;;;10.05;2.60;;;20.40;94.20;;;;;;5014630;28;20033;-74
2023/07/06 07:18:49;;;;;;;4.95;1.95;;;20.40;94.30;;;;;;5014502;28;20049;-74
2023/07/06 07:21:15;;;;;;;8.23;2.88;;;20.50;94.10;;;;;;5014265;28;20080;-73
2023/07/06 07:23:49;;;;;;;4.97;2.10;;;20.50;94.00;;;;;;5014472;28;20026;-74
2023/07/06 07:26:18;;;;;;;5.40;2.15;;;20.60;93.90;;;;;;5014393;28;20026;-73
2023/07/06 07:28:47;;;;;;;7.72;2.47;;;20.60;93.90;;;;;;5013269;28;20080;-73
2023/07/06 07:31:13;;;;;;;8.70;1.98;;;20.60;93.90;;;;;;5014233;28;20030;-74
2023/07/06 07:33:42;;;;;;;4.65;1.88;;;20.70;93.80;;;;;;5014169;28;20033;-73
2023/07/06 07:36:10;;;;;;;6.03;2.20;;;20.70;93.80;;;;;;5014618;28;20029;-73
2023/07/06 07:38:39;;;;;;;7.43;2.55;;;20.80;93.70;;;;;;5014250;28;20053;-73
2023/07/06 07:41:06;;;;;;;3.97;1.95;;;20.80;93.40;;;;;;5014113;28;20092;-73
2023/07/06 07:43:34;;;;;;;4.32;1.58;;;20.80;93.40;;;;;;5014300;28;20026;-73
2023/07/06 07:46:04;;;;;;;3.38;1.85;;;20.90;93.20;;;;;;5014199;28;20061;-74
2023/07/06 07:48:33;;;;;;;7.85;1.92;;;20.90;93.10;;;;;;5013898;28;20025;-73
2023/07/06 07:51:01;;;;;;;7.60;2.15;;;21.00;93.10;;;;;;5014031;28;20022;-73
2023/07/06 07:53:29;;;;;;;5.25;1.77;;;21.00;92.90;;;;;;5014252;28;20161;-73
2023/07/06 07:55:56;;;;;;;6.13;1.77;;;21.10;92.80;;;;;;5014180;28;20037;-74
2023/07/06 07:58:22;;;;;;;7.57;1.52;;;21.10;92.60;;;;;;5013930;28;20483;-73
2023/07/06 08:00:52;;;;;;;5.85;1.70;;;21.10;92.50;;;;;;5013612;28;20028;-73
2023/07/06 08:03:18;;;;;;;5.85;1.63;;;21.10;92.30;;;;;;5013630;28;20037;-74
2023/07/06 08:05:44;;;;;;;5.82;1.90;;;21.20;92.30;;;;;;5013933;28;20030;-74
2023/07/06 08:08:10;;;;;;;4.47;1.77;;;21.20;92.20;;;;;;5013793;28;20022;-73
2023/07/06 08:10:39;;;;;;;4.53;1.65;;;21.20;92.10;;;;;;5013589;28;20034;-73
2023/07/06 08:13:06;;;;;;;3.00;1.20;;;21.30;92.10;;;;;;5013720;28;20034;-73
2023/07/06 08:15:32;;;;;;;5.68;1.50;;;21.30;91.90;;;;;;5013678;28;20467;-73
2023/07/06 08:18:00;;;;;;;5.25;1.50;;;21.40;91.80;;;;;;5012129;28;20372;-74
2023/07/06 08:20:29;;;;;;;4.80;1.50;;;21.40;91.70;;;;;;5013700;28;20085;-73
2023/07/06 08:22:57;;;;;;;3.38;1.55;;;21.40;91.50;;;;;;5013444;28;20483;-73
2023/07/06 08:25:26;;;;;;;5.28;1.88;;;21.50;91.30;;;;;;5013626;28;20076;-74
2023/07/06 08:27:53;;;;;;;3.38;1.25;;;21.50;91.30;;;;;;5013291;28;20452;-73
2023/07/06 08:30:20;;;;;;;2.40;1.10;;;21.50;91.20;;;;;;5013300;28;20026;-72
2023/07/06 08:32:50;;;;;;;5.95;1.65;;;21.60;91.20;;;;;;5013256;28;20025;-73
2023/07/06 08:35:17;;;;;;;2.75;1.08;;;21.60;91.00;;;;;;5013538;28;20109;-72
2023/07/06 08:37:43;;;;;;;3.28;0.98;;;21.70;91.00;;;;;;5013321;28;20494;-73
2023/07/06 08:40:17;;;;;;;3.55;1.40;;;21.70;90.70;;;;;;5013390;28;20032;-73
2023/07/06 08:42:46;;;;;;;3.38;1.00;;;21.70;90.60;;;;;;5012984;28;20041;-73
2023/07/06 08:45:23;;;;;;;5.55;1.42;;;21.70;90.60;;;;;;5013358;28;20022;-72
2023/07/06 08:47:50;;;;;;;3.47;1.25;;;21.80;90.30;;;;;;5013229;28;20026;-72
2023/07/06 08:50:22;;;;;;;5.28;1.25;;;21.80;90.30;;;;;;5013322;28;20101;-74
2023/07/06 08:52:48;;;;;;;5.72;1.60;;;21.90;90.10;;;;;;5013214;28;20018;-74
2023/07/06 08:55:16;;;;;;;3.65;1.13;;;21.90;90.00;;;;;;5013316;28;20032;-74
2023/07/06 08:57:45;;;;;;;4.07;1.13;;;21.90;90.00;;;;;;5013166;28;20030;-74
2023/07/06 09:00:25;;;;;;;2.95;0.90;;;21.90;89.60;;;;;;5012936;28;20072;-74
2023/07/06 09:02:55;;;;;;;4.15;1.55;;;22.00;89.40;;;;;;5013072;28;20038;-73
2023/07/06 09:05:21;;;;;;;2.60;1.38;;;22.00;89.30;;;;;;5013311;28;20443;-74
2023/07/06 09:07:47;;;;;;;3.00;1.25;;;22.00;89.40;;;;;;5013016;28;20467;-74
2023/07/06 09:10:20;;;;;;;2.15;0.70;;;22.10;89.30;;;;;;5011794;28;20539;-73
2023/07/06 09:12:46;;;;;;;2.88;0.90;;;22.10;89.00;;;;;;5012955;28;20118;-73
2023/07/06 09:15:16;;;;;;;3.30;1.10;;;22.10;88.80;;;;;;5012840;28;20025;-74
2023/07/06 09:17:52;;;;;;;2.13;0.90;;;22.20;88.50;;;;;;5013092;28;20057;-73
2023/07/06 09:20:19;;;;;;;5.18;1.30;;;22.20;88.10;;;;;;5013098;28;20025;-74
2023/07/06 09:22:46;;;;;;;2.15;0.90;;;22.20;88.20;;;;;;5012980;28;20040;-73
2023/07/06 09:25:42;;;;;;;3.70;1.25;;;22.20;88.00;;;;;;5013049;28;20022;-73
2023/07/06 09:28:18;;;;;;;3.63;1.42;;;22.30;87.90;;;;;;5012166;28;20116;-73
2023/07/06 09:30:45;;;;;;;3.47;1.13;;;22.30;87.80;;;;;;5011778;28;20033;-72
2023/07/06 09:33:24;;;;;;;3.05;1.17;;;22.30;87.60;;;;;;5012827;28;20014;-73
2023/07/06 09:35:55;;;;;;;3.63;1.02;;;22.30;87.20;;;;;;5012967;28;20034;-73
2023/07/06 09:38:24;;;;;;;2.63;1.13;;;22.30;87.20;;;;;;5012838;28;20521;-73
2023/07/06 09:40:50;;;;;;;1.95;0.90;;;22.40;87.50;;;;;;5012589;28;20087;-73
2023/07/06 09:43:21;;;;;;;2.92;1.10;;;22.40;87.30;;;;;;5012622;28;20065;-73
2023/07/06 09:45:49;;;;;;;3.70;1.05;;;22.40;87.00;;;;;;5012852;28;20531;-73
2023/07/06 09:48:37;;;;;;;6.18;1.55;;;22.40;87.00;;;;;;5014753;28;20037;-72
2023/07/06 09:51:08;;;;;;;3.65;1.30;;;22.40;86.20;;;;;;5016327;28;20022;-73
2023/07/06 09:53:41;;;;;;;2.35;0.73;;;22.40;86.70;;;;;;5015111;28;20498;-73
2023/07/06 09:56:11;;;;;;;3.72;1.23;;;22.50;86.50;;;;;;5015164;28;20028;-73
2023/07/06 09:58:37;;;;;;;2.38;0.98;;;22.50;86.50;;;;;;5014628;28;20025;-73
2023/07/06 10:01:05;;;;;;;3.55;0.93;;;22.50;86.30;;;;;;5016031;28;20430;-74
2023/07/06 10:03:36;;;;;;;3.30;1.10;;;22.50;86.00;;;;;;5016252;28;20049;-73
2023/07/06 10:06:08;;;;;;;3.53;1.17;;;22.50;85.90;;;;;;5015952;28;20489;-74
2023/07/06 10:08:38;;;;;;;;;;;22.50;85.90;;;;;;5016665;28;20022;-74
2023/07/06 10:11:12;;;;;;;3.13;0.90;;;22.60;85.90;;;;;;5015868;28;20270;-73
2023/07/06 10:14:20;;;;;;;3.63;1.00;;;22.60;85.80;;;;;;5014600;28;20034;-73
2023/07/06 10:17:30;;;;;;;3.08;0.95;;;22.60;85.60;;;;;;4987169;28;20030;-74
2023/07/06 10:19:59;;;;;;;3.08;0.82;;;22.60;85.40;;;;;;5015518;28;20061;-74
2023/07/06 10:22:47;;;;;;;3.63;1.67;;;22.60;85.30;;;;;;5015896;28;20057;-74
2023/07/06 10:25:33;;;;;;;2.72;0.90;;;22.60;85.00;;;;;;5015831;28;20018;-73
2023/07/06 10:28:13;;;;;;;2.67;0.90;;;22.70;85.10;;;;;;5015378;28;20390;-74
2023/07/06 10:30:45;;;;;;;1.85;0.80;;;22.70;85.20;;;;;;5015546;28;20068;-74
2023/07/06 10:33:31;;;;;;;;;;;22.70;85.20;;;;;;5014854;28;20049;-73
2023/07/06 10:35:58;;;;;;;3.22;1.17;;;22.70;85.00;;;;;;5015258;28;19941;-73
2023/07/06 10:38:24;;;;;;;4.47;1.52;;;22.70;84.80;;;;;;5015515;28;20066;-74
2023/07/06 10:41:11;;;;;;;3.20;1.02;;;22.70;84.70;;;;;;5014784;28;20030;-74
2023/07/06 10:43:42;;;;;;;2.65;1.20;;;22.70;84.70;;;;;;5015522;28;20541;-73
2023/07/06 10:46:27;;;;;;;3.10;1.08;;;22.70;84.70;;;;;;5015344;28;20029;-75
2023/07/06 10:48:59;;;;;;;2.20;1.08;;;22.80;84.50;;;;;;5015159;28;20415;-73
2023/07/06 10:51:27;;;;;;;3.05;0.80;;;22.80;84.40;;;;;;5015069;28;20030;-73
2023/07/06 10:54:17;;;;;;;2.30;0.93;;;22.80;84.40;;;;;;5015128;28;20076;-73
2023/07/06 10:56:55;;;;;;;2.45;0.80;;;22.80;84.30;;;;;;5013431;28;20356;-72
2023/07/06 10:59:25;;;;;;;2.80;0.95;;;22.80;84.20;;;;;;5014108;28;20030;-73
2023/07/06 11:02:19;;;;;;;1.98;0.77;;;22.80;84.20;;;;;;5014774;28;20037;-72
2023/07/06 11:04:53;;;;;;;1.83;0.70;;;22.80;83.90;;;;;;5014937;28;20029;-74
2023/07/06 11:07:49;;;;;;;1.70;0.73;;;22.90;84.10;;;;;;5014922;28;20036;-73
2023/07/06 11:10:27;;;;;;;2.63;0.93;;;22.90;84.10;;;;;;5014719;28;20030;-73
2023/07/06 11:13:15;;;;;;;3.00;0.88;;;22.90;84.10;;;;;;5014808;28;20033;-73
2023/07/06 11:15:46;;;;;;;2.80;0.90;;;22.90;84.00;;;;;;5014910;28;20022;-73
2023/07/06 11:18:21;;;;;;;2.08;0.80;;;22.90;84.00;;;;;;5014932;28;20030;-73
2023/07/06 11:21:28;;;;;;;1.92;0.70;;;22.90;84.00;;;;;;5013103;28;20395;-73
2023/07/06 11:24:02;;;;;;;2.20;0.63;;;22.90;83.80;;;;;;5014208;28;20042;-73
2023/07/06 11:26:49;;;;;;;2.00;0.85;;;22.90;84.00;;;;;;5014316;28;20534;-73
2023/07/06 11:29:18;;;;;;;1.45;0.63;;;22.90;84.00;;;;;;5014392;28;20026;-73
2023/07/06 11:31:58;;;;;;;1.80;0.65;;;22.90;83.90;;;;;;5014489;28;20040;-72
2023/07/06 11:34:42;;;;;;;1.90;0.77;;;22.90;83.80;;;;;;5014627;28;20014;-72
2023/07/06 11:37:49;;;;;;;2.13;0.52;;;22.90;83.80;;;;;;5014311;28;20471;-73
2023/07/06 11:40:38;;;;;;;1.38;0.63;;;22.90;83.60;;;;;;5013618;28;20041;-73
2023/07/06 11:43:25;;;;;;;1.45;0.50;;;22.90;83.60;;;;;;5014142;28;20040;-73
2023/07/06 11:46:09;;;;;;;2.22;0.63;;;22.90;83.50;;;;;;5014157;28;20022;-73
2023/07/06 11:48:55;;;;;;;3.63;0.88;;;22.90;83.50;;;;;;5014384;28;20446;-73
2023/07/06 11:51:21;;;;;;;2.45;0.52;;;22.90;83.40;;;;;;5014151;28;20050;-73
2023/07/06 11:56:20;;;;;;;1.83;0.80;;;23.00;83.60;;;;;;5013938;28;20454;-73
2023/07/06 11:58:59;;;;;;;1.23;0.50;;;22.90;83.50;;;;;;5014065;28;20430;-73
2023/07/06 12:01:45;;;;;;;1.77;0.55;;;23.00;83.40;;;;;;5013984;28;20084;-73
2023/07/06 12:04:20;;;;;;;2.50;0.65;;;23.00;83.40;;;;;;5013896;28;20097;-73
2023/07/06 12:06:48;;;;;;;1.77;1.02;;;23.00;83.30;;;;;;5013691;28;20060;-73
2023/07/06 12:09:25;;;;;;;2.13;0.90;;;23.00;83.40;;;;;;5013688;28;20032;-73
2023/07/06 12:12:06;;;;;;;1.85;0.73;;;23.00;83.20;;;;;;5013460;28;20044;-73
2023/07/06 12:14:34;;;;;;;1.85;0.90;;;23.00;83.10;;;;;;5013865;28;20053;-73
2023/07/06 12:17:02;;;;;;;2.70;0.88;;;23.00;83.80;;;;;;5013700;28;20149;-72
2023/07/06 12:19:30;;;;;;;2.22;0.80;;;23.00;83.00;;;;;;5013681;28;20022;-73
2023/07/06 12:21:57;;;;;;;2.22;0.77;;;23.00;83.10;;;;;;5013363;28;20034;-73
2023/07/06 12:24:29;;;;;;;2.33;0.75;;;23.10;83.20;;;;;;5013486;28;20030;-73
2023/07/06 12:26:59;;;;;;;1.30;0.70;;;23.10;83.10;;;;;;5013399;28;20083;-73
2023/07/06 12:29:29;;;;;;;3.15;1.15;;;23.10;83.10;;;;;;5013557;28;20029;-73
2023/07/06 12:32:07;;;;;;;1.70;0.68;;;23.10;83.00;;;;;;5013403;28;20021;-73
2023/07/06 12:34:34;;;;;;;2.25;0.80;;;23.10;82.90;;;;;;5013644;28;20033;-73
2023/07/06 12:37:02;;;;;;;1.95;0.65;;;23.10;83.00;;;;;;5013164;28;20076;-72
2023/07/06 12:39:34;;;;;;;2.00;0.70;;;23.10;82.90;;;;;;5013483;28;20026;-73
2023/07/06 12:41:59;;;;;;;1.90;0.68;;;23.10;82.80;;;;;;5013337;28;20045;-73
2023/07/06 12:44:27;;;;;;;2.00;0.82;;;23.10;82.80;;;;;;5013260;28;20475;-73
2023/07/06 12:46:56;;;;;;;1.80;0.63;;;23.10;82.80;;;;;;5013517;28;20018;-73
2023/07/06 12:49:23;;;;;;;2.22;0.88;;;23.10;82.70;;;;;;5013309;28;20033;-73
2023/07/06 12:51:58;;;;;;;4.13;0.73;;;23.10;82.70;;;;;;5012954;28;20502;-73
2023/07/06 12:54:25;;;;;;;2.75;0.93;;;23.20;82.60;;;;;;5013366;28;20501;-72
2023/07/06 12:57:05;;;;;;;1.48;0.73;;;23.20;82.60;;;;;;5011986;28;20032;-73
2023/07/06 12:59:33;;;;;;;2.53;0.73;;;23.20;82.50;;;;;;5013219;28;20053;-72
2023/07/06 13:01:59;;;;;;;2.20;0.90;;;23.20;82.50;;;;;;5013041;28;20034;-73
2023/07/06 13:04:41;;;;;;;1.98;0.63;;;23.20;82.50;;;;;;5013236;28;20048;-73